Time;durP1;ratioP1;P1;durP2;ratioP2;P2;SDS_P1;SDS_P2;PMS_P1;PMS_P2;Temp;Humidity;BMP_temperature;BMP_pressure;BME280_temperature;BME280_humidity;BME280_pressure;Samples;Min_cycle;Max_cycle;Signal;HPM_P1;HPM_P2
2023/04/30 00:00:20;;;;;;;23.17;21.57;;;;;;;;;;5061302;28;20520;-86
2023/04/30 00:02:49;;;;;;;25.87;23.80;;;;;;;;;;5060737;28;20435;-87
2023/04/30 00:05:16;;;;;;;23.67;22.13;;;;;;;;;;5061497;28;20891;-85
2023/04/30 00:07:43;;;;;;;24.33;22.37;;;;;;;;;;5060842;28;20455;-87
2023/04/30 00:10:11;;;;;;;21.70;20.30;;;;;;;;;;5061678;28;20441;-85
2023/04/30 00:12:38;;;;;;;22.87;21.37;;;;;;;;;;5061697;28;20883;-85
2023/04/30 00:15:05;;;;;;;23.30;21.83;;;;;;;;;;5061529;28;20471;-86
2023/04/30 00:17:32;;;;;;;22.90;21.10;;;;;;;;;;5060547;28;20435;-86
2023/04/30 00:20:01;;;;;;;23.50;22.10;;;;;;;;;;5060647;28;20510;-86
2023/04/30 00:22:28;;;;;;;23.80;22.20;;;;;;;;;;5061404;28;20440;-85
2023/04/30 00:24:55;;;;;;;24.33;22.43;;;;;;;;;;5060754;28;20483;-86
2023/04/30 00:27:22;;;;;;;23.63;21.90;;;;;;;;;;5060868;28;20443;-86
2023/04/30 00:29:49;;;;;;;22.97;21.37;;;;;;;;;;5060258;28;20457;-86
2023/04/30 00:32:16;;;;;;;23.80;22.13;;;;;;;;;;5061482;28;20451;-87
2023/04/30 00:34:43;;;;;;;23.47;21.97;;;;;;;;;;5060676;28;20787;-86
2023/04/30 00:37:11;;;;;;;22.53;21.13;;;;;;;;;;5061045;28;20469;-86
2023/04/30 00:39:39;;;;;;;22.47;21.07;;;;;;;;;;5062768;28;20554;-86
2023/04/30 00:42:06;;;;;;;22.87;21.27;;;;;;;;;;5065081;28;20518;-87
2023/04/30 00:44:33;;;;;;;24.10;22.40;;;;;;;;;;5065003;28;20453;-87
2023/04/30 00:47:00;;;;;;;23.60;21.87;;;;;;;;;;5066864;28;20448;-87
2023/04/30 00:49:27;;;;;;;24.27;22.03;;;;;;;;;;5067039;28;20459;-87
2023/04/30 00:51:54;;;;;;;24.90;23.00;;;;;;;;;;5065483;28;20437;-87
2023/04/30 00:54:23;;;;;;;24.33;22.50;;;;;;;;;;5065925;28;20421;-87
2023/04/30 00:56:50;;;;;;;23.47;21.63;;;;;;;;;;5066009;28;20432;-86
2023/04/30 00:59:17;;;;;;;23.37;21.70;;;;;;;;;;5065592;28;20449;-86
2023/04/30 01:01:44;;;;;;;23.37;21.60;;;;;;;;;;5065735;28;20990;-85
2023/04/30 01:04:12;;;;;;;26.30;23.77;;;;;;;;;;5062570;28;20504;-85
2023/04/30 01:06:39;;;;;;;24.10;22.30;;;;;;;;;;5062253;28;20823;-84
2023/04/30 01:09:06;;;;;;;22.43;20.93;;;;;;;;;;5063215;28;20483;-86
2023/04/30 01:11:40;;;;;;;23.73;22.03;;;;;;;;;;5064355;28;20452;-84
2023/04/30 01:14:08;;;;;;;22.27;20.80;;;;;;;;;;5065219;28;20398;-86
2023/04/30 01:16:37;;;;;;;24.43;22.73;;;;;;;;;;5065095;28;20784;-86
2023/04/30 01:19:06;;;;;;;23.43;21.93;;;;;;;;;;5065897;28;20463;-85
2023/04/30 01:21:34;;;;;;;22.97;21.27;;;;;;;;;;5064971;28;20802;-86
2023/04/30 01:24:21;;;;;;;24.30;22.37;;;;;;;;;;5064585;28;20431;-87
2023/04/30 01:26:54;;;;;;;23.40;21.70;;;;;;;;;;5064835;28;20814;-86
2023/04/30 01:29:22;;;;;;;23.83;22.00;;;;;;;;;;5064847;28;20525;-86
2023/04/30 01:31:49;;;;;;;23.53;21.77;;;;;;;;;;5064405;28;20448;-86
2023/04/30 01:34:16;;;;;;;22.93;21.40;;;;;;;;;;5064854;28;20417;-86
2023/04/30 01:36:49;;;;;;;23.40;21.67;;;;;;;;;;5064164;28;20458;-86
2023/04/30 01:39:21;;;;;;;22.97;21.30;;;;;;;;;;5064892;28;20449;-86
2023/04/30 01:41:51;;;;;;;24.13;22.13;;;;;;;;;;5063082;28;20498;-86
2023/04/30 01:44:25;;;;;;;23.43;21.67;;;;;;;;;;5063631;28;20521;-86
2023/04/30 01:46:56;;;;;;;23.53;21.93;;;;;;;;;;5063365;28;20500;-86
2023/04/30 01:49:28;;;;;;;24.77;22.87;;;;;;;;;;5063549;28;20430;-86
2023/04/30 01:52:00;;;;;;;24.27;22.47;;;;;;;;;;5062227;28;20470;-86
2023/04/30 01:54:27;;;;;;;407.23;118.85;;;;;;;;;;5063610;28;20447;-86
2023/04/30 01:57:01;;;;;;;22.40;20.97;;;;;;;;;;5062850;28;20196;-86
2023/04/30 01:59:30;;;;;;;409.10;122.47;;;;;;;;;;5064342;28;20466;-85
2023/04/30 02:01:57;;;;;;;34.53;32.10;;;;;;;;;;5064382;28;20823;-86
2023/04/30 02:04:24;;;;;;;24.23;22.57;;;;;;;;;;5064306;28;20467;-86
2023/04/30 02:06:51;;;;;;;38.07;36.07;;;;;;;;;;5064230;28;20463;-86
2023/04/30 02:09:18;;;;;;;27.25;25.70;;;;;;;;;;5063476;28;20454;-86
2023/04/30 02:11:45;;;;;;;24.20;21.93;;;;;;;;;;5064272;28;20211;-85
2023/04/30 02:14:12;;;;;;;23.77;21.97;;;;;;;;;;5063312;28;20441;-86
2023/04/30 02:16:40;;;;;;;23.17;21.50;;;;;;;;;;5063792;28;20618;-86
2023/04/30 02:19:07;;;;;;;23.70;21.63;;;;;;;;;;5063826;28;20455;-86
2023/04/30 02:21:34;;;;;;;25.20;22.90;;;;;;;;;;5063500;28;20414;-86
2023/04/30 02:24:01;;;;;;;22.93;21.10;;;;;;;;;;5063131;28;21015;-85
2023/04/30 02:26:28;;;;;;;23.30;21.60;;;;;;;;;;5062028;28;20482;-86
2023/04/30 02:28:55;;;;;;;23.20;21.40;;;;;;;;;;5062485;28;20464;-86
2023/04/30 02:31:22;;;;;;;23.07;21.17;;;;;;;;;;5063691;28;20422;-86
2023/04/30 02:33:50;;;;;;;23.57;21.37;;;;;;;;;;5062135;28;20445;-86
2023/04/30 02:36:17;;;;;;;22.40;20.93;;;;;;;;;;5061922;28;20429;-86
2023/04/30 02:38:44;;;;;;;23.03;21.23;;;;;;;;;;5062906;28;20504;-87
2023/04/30 02:41:11;;;;;;;22.27;20.60;;;;;;;;;;5062569;28;20834;-86
2023/04/30 02:43:38;;;;;;;23.40;21.60;;;;;;;;;;5062152;28;20487;-86
2023/04/30 02:46:05;;;;;;;22.40;20.63;;;;;;;;;;5061774;28;20453;-86
2023/04/30 02:48:33;;;;;;;24.80;22.80;;;;;;;;;;5062478;28;20463;-86
2023/04/30 02:51:01;;;;;;;23.30;21.50;;;;;;;;;;5062732;28;20793;-85
2023/04/30 02:53:28;;;;;;;23.37;21.63;;;;;;;;;;5062049;28;20457;-85
2023/04/30 02:55:55;;;;;;;23.10;21.33;;;;;;;;;;5061099;28;20433;-87
2023/04/30 02:58:22;;;;;;;21.67;19.90;;;;;;;;;;5061313;28;20542;-86
2023/04/30 03:00:49;;;;;;;21.83;20.63;;;;;;;;;;5061283;28;21004;-86
2023/04/30 03:03:16;;;;;;;23.70;21.47;;;;;;;;;;5061323;28;20854;-85
2023/04/30 03:05:43;;;;;;;23.87;22.20;;;;;;;;;;5060535;28;20490;-86
2023/04/30 03:08:12;;;;;;;23.50;21.43;;;;;;;;;;5061833;28;20409;-86
2023/04/30 03:10:39;;;;;;;22.50;20.40;;;;;;;;;;5061595;28;20429;-86
2023/04/30 03:13:06;;;;;;;69.57;62.80;;;;;;;;;;5062603;28;20848;-86
2023/04/30 03:15:33;;;;;;;27.45;25.00;;;;;;;;;;5060876;28;20204;-87
2023/04/30 03:18:00;;;;;;;384.02;112.90;;;;;;;;;;5062562;28;20196;-87
2023/04/30 03:20:27;;;;;;;22.70;21.17;;;;;;;;;;5062141;28;20228;-85
2023/04/30 03:22:54;;;;;;;21.93;20.50;;;;;;;;;;5058191;28;20815;-86
2023/04/30 03:25:23;;;;;;;22.37;20.83;;;;;;;;;;5057198;28;20486;-85
2023/04/30 03:27:50;;;;;;;26.43;23.93;;;;;;;;;;5057641;28;20470;-85
2023/04/30 03:30:17;;;;;;;23.77;21.93;;;;;;;;;;5059239;28;20487;-86
2023/04/30 03:32:44;;;;;;;23.52;21.63;;;;;;;;;;5060424;28;20467;-85
2023/04/30 03:35:11;;;;;;;27.20;24.77;;;;;;;;;;5060154;28;20612;-86
2023/04/30 03:37:38;;;;;;;23.27;21.48;;;;;;;;;;5061146;28;20208;-86
2023/04/30 03:40:06;;;;;;;23.60;21.90;;;;;;;;;;5070243;28;20224;-86
2023/04/30 03:42:36;;;;;;;25.90;21.48;;;;;;;;;;5064849;28;20200;-86
2023/04/30 03:45:03;;;;;;;21.90;20.25;;;;;;;;;;5063404;28;20307;-87
2023/04/30 03:47:30;;;;;;;39.35;26.25;;;;;;;;;;5072481;28;20251;-84
2023/04/30 03:49:57;;;;;;;23.42;21.83;;;;;;;;;;5078080;28;20224;-85
2023/04/30 03:52:25;;;;;;;24.83;22.40;;;;;;;;;;5077680;28;20180;-86
2023/04/30 03:54:52;;;;;;;25.33;22.83;;;;;;;;;;5066279;28;20416;-87
2023/04/30 03:57:19;;;;;;;63.38;32.53;;;;;;;;;;5064680;28;20212;-82
2023/04/30 03:59:47;;;;;;;405.05;110.63;;;;;;;;;;5064406;28;20216;-83
2023/04/30 04:02:14;;;;;;;22.53;21.10;;;;;;;;;;5064492;28;20895;-83
2023/04/30 04:04:42;;;;;;;24.08;22.38;;;;;;;;;;5064772;28;20814;-82
2023/04/30 04:07:10;;;;;;;24.05;22.20;;;;;;;;;;5063745;28;20254;-82
2023/04/30 04:09:37;;;;;;;25.05;23.00;;;;;;;;;;5064447;28;20220;-82
2023/04/30 04:12:04;;;;;;;25.47;23.53;;;;;;;;;;5063580;28;20204;-83
2023/04/30 04:14:31;;;;;;;23.02;21.48;;;;;;;;;;5062791;28;20490;-82
2023/04/30 04:17:00;;;;;;;23.10;21.43;;;;;;;;;;5063688;28;20226;-82
2023/04/30 04:19:27;;;;;;;22.48;21.05;;;;;;;;;;5062870;28;20460;-82
2023/04/30 04:21:54;;;;;;;21.67;20.15;;;;;;;;;;5063037;28;20204;-83
2023/04/30 04:24:21;;;;;;;66.05;32.90;;;;;;;;;;5063013;28;20207;-83
2023/04/30 04:26:48;;;;;;;404.30;109.88;;;;;;;;;;5061787;28;20220;-82
2023/04/30 04:29:15;;;;;;;21.93;20.17;;;;;;;;;;5062792;28;20250;-82
2023/04/30 04:31:42;;;;;;;65.10;31.83;;;;;;;;;;5062950;28;20855;-83
2023/04/30 04:34:10;;;;;;;22.20;20.60;;;;;;;;;;5062991;28;20227;-81
2023/04/30 04:36:37;;;;;;;21.83;20.38;;;;;;;;;;5062079;28;20266;-82
2023/04/30 04:39:05;;;;;;;21.45;19.92;;;;;;;;;;5062093;28;20230;-82
2023/04/30 04:41:32;;;;;;;24.83;22.93;;;;;;;;;;5062864;28;20200;-82
2023/04/30 04:44:00;;;;;;;22.88;21.38;;;;;;;;;;5061961;28;20424;-82
2023/04/30 04:46:28;;;;;;;45.55;28.35;;;;;;;;;;5061842;28;20228;-82
2023/04/30 04:48:55;;;;;;;400.63;110.50;;;;;;;;;;5060921;28;20251;-82
2023/04/30 04:51:23;;;;;;;393.85;108.57;;;;;;;;;;5062063;28;20808;-84
2023/04/30 04:53:50;;;;;;;399.33;107.20;;;;;;;;;;5061588;28;20200;-83
2023/04/30 04:56:17;;;;;;;395.80;102.32;;;;;;;;;;5061499;28;20668;-82
2023/04/30 04:58:45;;;;;;;400.15;108.47;;;;;;;;;;5061403;28;20278;-83
2023/04/30 05:01:12;;;;;;;395.95;108.57;;;;;;;;;;5062276;28;20189;-82
2023/04/30 05:03:39;;;;;;;390.02;106.70;;;;;;;;;;5062087;28;20299;-82
2023/04/30 05:06:06;;;;;;;401.60;107.65;;;;;;;;;;5061152;28;20285;-83
2023/04/30 05:08:35;;;;;;;399.98;108.70;;;;;;;;;;5061648;28;20209;-82
2023/04/30 05:11:02;;;;;;;391.77;105.50;;;;;;;;;;5060430;28;20204;-82
2023/04/30 05:13:29;;;;;;;399.33;117.88;;;;;;;;;;5061607;28;20231;-83
2023/04/30 05:15:56;;;;;;;398.33;109.68;;;;;;;;;;5061101;28;20738;-83
2023/04/30 05:18:23;;;;;;;404.88;112.78;;;;;;;;;;5060981;28;20230;-81
2023/04/30 05:20:50;;;;;;;402.30;111.18;;;;;;;;;;5060526;28;20723;-82
2023/04/30 05:23:17;;;;;;;400.48;111.95;;;;;;;;;;5061196;28;20200;-82
2023/04/30 05:25:45;;;;;;;409.55;118.22;;;;;;;;;;5069569;28;20762;-83
2023/04/30 05:28:12;;;;;;;400.02;111.85;;;;;;;;;;5073235;28;20229;-83
2023/04/30 05:30:39;;;;;;;395.13;111.60;;;;;;;;;;5069945;28;20635;-81
2023/04/30 05:33:06;;;;;;;396.50;111.15;;;;;;;;;;5060260;28;20209;-82
2023/04/30 05:35:34;;;;;;;422.02;116.43;;;;;;;;;;5057596;28;20212;-82
2023/04/30 05:38:02;;;;;;;405.63;114.18;;;;;;;;;;5058481;28;20665;-82
2023/04/30 05:40:29;;;;;;;419.02;120.03;;;;;;;;;;5058625;28;20220;-81
2023/04/30 05:42:57;;;;;;;397.50;106.28;;;;;;;;;;5057388;28;20192;-84
2023/04/30 05:45:25;;;;;;;413.05;122.60;;;;;;;;;;5060248;28;20208;-85
2023/04/30 05:47:52;;;;;;;408.13;112.18;;;;;;;;;;5060755;28;20207;-84
2023/04/30 05:50:19;;;;;;;407.35;118.53;;;;;;;;;;5061711;28;20231;-84
2023/04/30 05:52:46;;;;;;;401.15;123.22;;;;;;;;;;5062913;28;20208;-85
2023/04/30 05:55:13;;;;;;;403.23;119.38;;;;;;;;;;5063089;28;20212;-84
2023/04/30 05:57:40;;;;;;;397.55;114.68;;;;;;;;;;5063073;28;20215;-85
2023/04/30 06:00:09;;;;;;;411.25;119.88;;;;;;;;;;5063770;28;20235;-85
2023/04/30 06:02:36;;;;;;;401.60;118.03;;;;;;;;;;5063857;28;20208;-84
2023/04/30 06:05:04;;;;;;;415.02;129.27;;;;;;;;;;5064216;28;20246;-85
2023/04/30 06:07:31;;;;;;;401.02;114.57;;;;;;;;;;5063243;28;20251;-85
2023/04/30 06:09:58;;;;;;;414.65;122.70;;;;;;;;;;5063276;28;20224;-84
2023/04/30 06:12:25;;;;;;;424.33;127.18;;;;;;;;;;5063070;28;20208;-85
2023/04/30 06:14:52;;;;;;;414.73;121.32;;;;;;;;;;5063317;28;20212;-85
2023/04/30 06:17:20;;;;;;;417.45;126.38;;;;;;;;;;5063605;28;20204;-84
2023/04/30 06:19:47;;;;;;;418.70;123.30;;;;;;;;;;5063878;28;20572;-84
2023/04/30 06:22:14;;;;;;;411.55;123.95;;;;;;;;;;5063323;28;20266;-84
2023/04/30 06:24:41;;;;;;;410.95;126.95;;;;;;;;;;5063397;28;20196;-85
2023/04/30 06:27:09;;;;;;;420.67;130.48;;;;;;;;;;5063133;28;20224;-84
2023/04/30 06:29:36;;;;;;;408.95;125.57;;;;;;;;;;5063690;28;20224;-84
2023/04/30 06:32:03;;;;;;;408.10;126.68;;;;;;;;;;5062648;28;20208;-88
2023/04/30 06:34:31;;;;;;;429.83;131.25;;;;;;;;;;5062822;28;20230;-86
2023/04/30 06:36:58;;;;;;;412.58;127.05;;;;;;;;;;5062600;28;20191;-84
2023/04/30 06:39:25;;;;;;;412.85;130.40;;;;;;;;;;5062529;28;20617;-85
2023/04/30 06:41:52;;;;;;;419.13;136.82;;;;;;;;;;5062163;28;20672;-86
2023/04/30 06:44:19;;;;;;;410.33;128.02;;;;;;;;;;5061122;28;20212;-83
2023/04/30 06:46:46;;;;;;;427.73;132.85;;;;;;;;;;5062468;28;20630;-84
2023/04/30 06:49:13;;;;;;;429.42;134.63;;;;;;;;;;5063681;28;20246;-84
2023/04/30 06:51:42;;;;;;;415.33;130.93;;;;;;;;;;5066528;28;20210;-84
2023/04/30 06:54:09;;;;;;;419.33;136.38;;;;;;;;;;5064309;28;20299;-84
2023/04/30 06:56:36;;;;;;;417.95;133.75;;;;;;;;;;5063687;28;20653;-85
2023/04/30 06:59:03;;;;;;;416.20;131.60;;;;;;;;;;5064218;28;20228;-84
2023/04/30 07:01:30;;;;;;;408.65;132.43;;;;;;;;;;5064721;28;20247;-84
2023/04/30 07:03:57;;;;;;;421.77;140.43;;;;;;;;;;5063226;28;20213;-82
2023/04/30 07:06:24;;;;;;;408.42;127.20;;;;;;;;;;5062119;28;20227;-84
2023/04/30 07:08:53;;;;;;;423.80;140.05;;;;;;;;;;5062349;28;20227;-85
2023/04/30 07:11:20;;;;;;;417.23;136.00;;;;;;;;;;5062036;28;20235;-85
2023/04/30 07:13:47;;;;;;;427.40;141.93;;;;;;;;;;5061896;28;20734;-84
2023/04/30 07:16:15;;;;;;;419.75;138.43;;;;;;;;;;5061449;28;20180;-84
2023/04/30 07:18:42;;;;;;;425.55;138.70;;;;;;;;;;5061772;28;20270;-84
2023/04/30 07:21:09;;;;;;;413.25;139.23;;;;;;;;;;5061942;28;20211;-84
2023/04/30 07:23:36;;;;;;;417.27;135.70;;;;;;;;;;5061712;28;20604;-86
2023/04/30 07:26:05;;;;;;;425.67;139.90;;;;;;;;;;5060958;28;20216;-84
2023/04/30 07:28:32;;;;;;;422.13;141.23;;;;;;;;;;5060935;28;20200;-83
2023/04/30 07:30:59;;;;;;;430.08;145.27;;;;;;;;;;5059994;28;20598;-82
2023/04/30 07:33:27;;;;;;;419.65;150.75;;;;;;;;;;5061642;28;20200;-85
2023/04/30 07:35:55;;;;;;;417.92;142.02;;;;;;;;;;5060408;28;20314;-84
2023/04/30 07:38:22;;;;;;;424.42;142.90;;;;;;;;;;5061760;28;20208;-84
2023/04/30 07:40:49;;;;;;;414.55;147.35;;;;;;;;;;5061904;28;20212;-84
2023/04/30 07:43:18;;;;;;;415.83;141.85;;;;;;;;;;5061783;28;20211;-84
2023/04/30 07:45:45;;;;;;;431.65;146.00;;;;;;;;;;5060649;28;20216;-84
2023/04/30 07:48:12;;;;;;;418.08;141.10;;;;;;;;;;5061711;28;20250;-84
2023/04/30 07:50:39;;;;;;;422.58;147.05;;;;;;;;;;5061221;28;20224;-84
2023/04/30 07:53:08;;;;;;;411.00;138.52;;;;;;;;;;5058357;28;20207;-84
2023/04/30 07:55:35;;;;;;;422.65;142.30;;;;;;;;;;5058313;28;20222;-84
2023/04/30 07:58:02;;;;;;;417.13;146.65;;;;;;;;;;5059861;28;20640;-83
2023/04/30 08:00:31;;;;;;;411.85;138.52;;;;;;;;;;5060460;28;20626;-84
2023/04/30 08:02:59;;;;;;;415.63;137.75;;;;;;;;;;5061274;28;20215;-84
2023/04/30 08:05:26;;;;;;;434.15;150.02;;;;;;;;;;5062294;28;20238;-83
2023/04/30 08:07:53;;;;;;;421.80;147.10;;;;;;;;;;5061112;28;20262;-84
2023/04/30 08:10:20;;;;;;;414.42;141.85;;;;;;;;;;5062294;28;20228;-85
2023/04/30 08:12:47;;;;;;;420.20;139.75;;;;;;;;;;5062728;28;20263;-84
2023/04/30 08:15:14;;;;;;;419.33;146.50;;;;;;;;;;5061711;28;20269;-84
2023/04/30 08:17:42;;;;;;;423.00;145.77;;;;;;;;;;5066521;28;20589;-84
2023/04/30 08:20:10;;;;;;;426.17;146.32;;;;;;;;;;5061492;28;20224;-84
2023/04/30 08:22:37;;;;;;;423.10;146.68;;;;;;;;;;5061435;28;20664;-83
2023/04/30 08:25:04;;;;;;;425.13;151.35;;;;;;;;;;5057952;28;20204;-85
2023/04/30 08:27:31;;;;;;;435.35;155.45;;;;;;;;;;5056927;28;20262;-86
2023/04/30 08:29:58;;;;;;;440.67;147.98;;;;;;;;;;5059261;28;20294;-83
2023/04/30 08:32:25;;;;;;;433.08;157.38;;;;;;;;;;5066946;28;20191;-85
2023/04/30 08:34:54;;;;;;;433.75;157.60;;;;;;;;;;5076501;28;20371;-78
2023/04/30 08:37:21;;;;;;;434.13;153.70;;;;;;;;;;5075432;28;20196;-79
2023/04/30 08:39:48;;;;;;;417.80;147.25;;;;;;;;;;5067925;28;20244;-80
2023/04/30 08:42:16;;;;;;;436.63;155.07;;;;;;;;;;5062045;28;20246;-79
2023/04/30 08:44:45;;;;;;;428.10;148.48;;;;;;;;;;5061923;28;20212;-80
2023/04/30 08:47:13;;;;;;;431.35;148.02;;;;;;;;;;5057758;28;20247;-77
2023/04/30 08:49:40;;;;;;;419.77;146.23;;;;;;;;;;5058848;28;20230;-80
2023/04/30 08:52:08;;;;;;;421.08;151.13;;;;;;;;;;5059138;28;20261;-79
2023/04/30 08:54:36;;;;;;;426.40;160.63;;;;;;;;;;5058527;28;20209;-79
2023/04/30 08:57:04;;;;;;;433.95;157.50;;;;;;;;;;5056126;28;20602;-79
2023/04/30 08:59:31;;;;;;;448.08;169.80;;;;;;;;;;5056822;28;20228;-79
2023/04/30 09:01:58;;;;;;;447.63;171.63;;;;;;;;;;5061738;28;20208;-79
2023/04/30 09:04:25;;;;;;;439.55;169.70;;;;;;;;;;5061433;28;20200;-78
2023/04/30 09:06:57;;;;;;;441.55;160.77;;;;;;;;;;5058837;28;20220;-78
2023/04/30 09:09:28;;;;;;;449.23;163.60;;;;;;;;;;5058112;28;20692;-78
2023/04/30 09:12:11;;;;;;;473.90;190.18;;;;;;;;;;5058053;28;20238;-78
2023/04/30 09:14:39;;;;;;;208.98;100.97;;;;;;;;;;5060472;28;20204;-86
2023/04/30 09:17:07;;;;;;;433.60;167.50;;;;;;;;;;5058966;28;20656;-77
2023/04/30 09:19:34;;;;;;;436.23;183.77;;;;;;;;;;5057049;28;20228;-78
2023/04/30 09:22:19;;;;;;;442.48;176.43;;;;;;;;;;5057786;28;20611;-78
2023/04/30 09:24:49;;;;;;;421.45;150.43;;;;;;;;;;5059320;28;20252;-79
2023/04/30 09:27:17;;;;;;;426.60;164.07;;;;;;;;;;5059624;28;20223;-78
2023/04/30 09:29:45;;;;;;;430.50;159.30;;;;;;;;;;5058797;28;20579;-79
2023/04/30 09:32:12;;;;;;;435.70;170.38;;;;;;;;;;5058823;28;20204;-77
2023/04/30 09:34:39;;;;;;;436.00;170.90;;;;;;;;;;5057262;28;20219;-77
2023/04/30 09:37:06;;;;;;;432.02;161.00;;;;;;;;;;5056002;28;20188;-77
2023/04/30 09:39:33;;;;;;;425.85;164.25;;;;;;;;;;5056748;28;20231;-77
2023/04/30 09:42:11;;;;;;;429.15;160.63;;;;;;;;;;5060959;28;20208;-84
2023/04/30 09:44:39;;;;;;;434.17;172.02;;;;;;;;;;5057623;28;20300;-76
2023/04/30 09:47:11;;;;;;;428.98;163.90;;;;;;;;;;5055483;28;20224;-76
2023/04/30 09:49:38;;;;;;;431.45;167.95;;;;;;;;;;5055300;28;20708;-78
2023/04/30 09:52:06;;;;;;;431.50;171.30;;;;;;;;;;5060225;28;20208;-78
2023/04/30 09:54:33;;;;;;;434.45;166.30;;;;;;;;;;5058873;28;20247;-76
2023/04/30 09:57:01;;;;;;;431.80;173.77;;;;;;;;;;5056877;28;20204;-78
2023/04/30 09:59:30;;;;;;;430.90;177.07;;;;;;;;;;5064055;28;20291;-80
2023/04/30 10:01:59;;;;;;;445.42;181.73;;;;;;;;;;5062230;28;20212;-84
2023/04/30 10:04:26;;;;;;;434.25;171.82;;;;;;;;;;5062689;28;20211;-88
2023/04/30 10:06:55;;;;;;;432.80;180.18;;;;;;;;;;5061586;28;20718;-86
2023/04/30 10:09:23;;;;;;;434.92;171.10;;;;;;;;;;5062078;28;20220;-86
2023/04/30 10:11:51;;;;;;;431.73;169.07;;;;;;;;;;5061989;28;20235;-88
2023/04/30 10:14:18;;;;;;;431.83;178.18;;;;;;;;;;5062158;28;20216;-80
2023/04/30 10:16:51;;;;;;;430.95;178.20;;;;;;;;;;5062566;28;20664;-79
2023/04/30 10:19:19;;;;;;;431.02;185.95;;;;;;;;;;5061785;28;20579;-79
2023/04/30 10:21:47;;;;;;;443.77;182.35;;;;;;;;;;5061173;28;20550;-79
2023/04/30 10:24:17;;;;;;;431.88;172.00;;;;;;;;;;5061219;28;20223;-78
2023/04/30 10:26:44;;;;;;;438.67;180.13;;;;;;;;;;5061699;28;20204;-79
2023/04/30 10:29:11;;;;;;;425.15;171.10;;;;;;;;;;5060819;28;20762;-80
2023/04/30 10:31:38;;;;;;;438.77;181.80;;;;;;;;;;5059789;28;20274;-79
2023/04/30 10:34:11;;;;;;;437.05;201.38;;;;;;;;;;5061348;28;20208;-79
2023/04/30 10:36:43;;;;;;;435.13;181.02;;;;;;;;;;5055871;28;20737;-79
2023/04/30 10:39:11;;;;;;;440.02;177.38;;;;;;;;;;5056503;28;20570;-77
2023/04/30 10:41:38;;;;;;;440.55;199.88;;;;;;;;;;5056849;28;20262;-78
2023/04/30 10:44:05;;;;;;;444.02;200.55;;;;;;;;;;5056058;28;20620;-78
2023/04/30 10:46:35;;;;;;;433.88;192.07;;;;;;;;;;5055633;28;20219;-77
2023/04/30 10:49:02;;;;;;;439.65;201.07;;;;;;;;;;5056748;28;20224;-78
2023/04/30 10:51:43;;;;;;;442.92;196.13;;;;;;;;;;5058858;28;20625;-81
2023/04/30 10:54:12;;;;;;;458.48;225.35;;;;;;;;;;5059429;28;20237;-77
2023/04/30 10:56:39;;;;;;;451.50;207.45;;;;;;;;;;5057650;28;20723;-78
2023/04/30 10:59:07;;;;;;;443.30;212.23;;;;;;;;;;5056451;28;20220;-79
2023/04/30 11:01:54;;;;;;;444.13;198.00;;;;;;;;;;5056700;28;20234;-78
2023/04/30 11:04:21;;;;;;;421.40;174.07;;;;;;;;;;5056881;28;20235;-79
2023/04/30 11:06:55;;;;;;;427.00;182.30;;;;;;;;;;5056977;28;20204;-79
2023/04/30 11:09:36;;;;;;;425.45;175.48;;;;;;;;;;5056407;28;20301;-78
2023/04/30 11:12:03;;;;;;;424.88;182.55;;;;;;;;;;5059068;28;20210;-79
2023/04/30 11:14:32;;;;;;;423.23;181.65;;;;;;;;;;5059240;28;20295;-79
2023/04/30 11:17:00;;;;;;;427.67;187.43;;;;;;;;;;5058533;28;20208;-78
2023/04/30 11:19:28;;;;;;;430.58;184.40;;;;;;;;;;5058695;28;20234;-79
2023/04/30 11:22:14;;;;;;;440.88;211.50;;;;;;;;;;5059192;28;20207;-78
2023/04/30 11:24:51;;;;;;;415.77;173.60;;;;;;;;;;5058140;28;20208;-79
2023/04/30 11:27:20;;;;;;;433.88;190.15;;;;;;;;;;5056650;28;20215;-80
2023/04/30 11:29:48;;;;;;;438.75;206.95;;;;;;;;;;5056272;28;20801;-78
2023/04/30 11:32:15;;;;;;;436.98;200.60;;;;;;;;;;5057025;28;20556;-78
2023/04/30 11:34:43;;;;;;;437.25;190.45;;;;;;;;;;5055912;28;20962;-79
2023/04/30 11:37:12;;;;;;;438.40;205.50;;;;;;;;;;5056873;28;20204;-79
2023/04/30 11:39:40;;;;;;;437.13;216.27;;;;;;;;;;5059537;28;20227;-78
2023/04/30 11:42:08;;;;;;;437.23;221.40;;;;;;;;;;5060004;28;20208;-79
2023/04/30 11:44:37;;;;;;;439.42;221.65;;;;;;;;;;5059374;28;20204;-78
2023/04/30 11:47:05;;;;;;;433.20;201.68;;;;;;;;;;5058339;28;20231;-79
2023/04/30 11:49:32;;;;;;;446.05;227.07;;;;;;;;;;5058301;28;20670;-79
2023/04/30 11:51:59;;;;;;;433.13;201.52;;;;;;;;;;5061661;28;20208;-79
2023/04/30 11:54:26;;;;;;;439.48;221.77;;;;;;;;;;5060942;28;20204;-79
2023/04/30 11:56:59;;;;;;;432.35;210.10;;;;;;;;;;5058859;28;20664;-79
2023/04/30 11:59:30;;;;;;;445.95;218.82;;;;;;;;;;5059005;28;20227;-87
2023/04/30 12:01:57;;;;;;;431.40;204.77;;;;;;;;;;5057084;28;20583;-79
2023/04/30 12:04:24;;;;;;;436.90;206.35;;;;;;;;;;5056323;28;20206;-78
2023/04/30 12:06:51;;;;;;;442.83;209.07;;;;;;;;;;5055964;28;20299;-79
2023/04/30 12:09:18;;;;;;;438.73;223.95;;;;;;;;;;5058386;28;20227;-78
2023/04/30 12:11:48;;;;;;;439.30;231.57;;;;;;;;;;5056877;28;20204;-78
2023/04/30 12:14:15;;;;;;;430.33;200.20;;;;;;;;;;5055426;28;20658;-78
2023/04/30 12:16:47;;;;;;;433.52;205.55;;;;;;;;;;5056977;28;20281;-78
2023/04/30 12:19:14;;;;;;;439.35;210.30;;;;;;;;;;5058075;28;20696;-79
2023/04/30 12:21:43;;;;;;;427.02;196.30;;;;;;;;;;5056920;28;20208;-78
2023/04/30 12:24:11;;;;;;;435.25;208.63;;;;;;;;;;5055528;28;20204;-78
2023/04/30 12:26:38;;;;;;;424.50;200.43;;;;;;;;;;5054675;28;20197;-78
2023/04/30 12:29:06;;;;;;;427.50;199.02;;;;;;;;;;5054200;28;20629;-78
2023/04/30 12:31:33;;;;;;;429.48;202.20;;;;;;;;;;5053878;28;20257;-77
2023/04/30 12:34:05;;;;;;;436.75;211.40;;;;;;;;;;5053222;28;20243;-78
2023/04/30 12:36:33;;;;;;;432.92;198.20;;;;;;;;;;5058208;28;20218;-77
2023/04/30 12:39:09;;;;;;;435.52;206.13;;;;;;;;;;5059714;28;20224;-78
2023/04/30 12:41:38;;;;;;;427.58;202.13;;;;;;;;;;5058739;28;20631;-77
2023/04/30 12:44:14;;;;;;;427.45;210.27;;;;;;;;;;5060001;28;20208;-78
2023/04/30 12:46:42;;;;;;;427.73;198.45;;;;;;;;;;5057536;28;20295;-79
2023/04/30 12:49:10;;;;;;;438.25;214.27;;;;;;;;;;5057953;28;20228;-79
2023/04/30 12:51:39;;;;;;;439.05;210.98;;;;;;;;;;5058313;28;20208;-79
2023/04/30 12:54:06;;;;;;;435.85;224.80;;;;;;;;;;5058277;28;20268;-79
2023/04/30 12:56:33;;;;;;;436.27;220.63;;;;;;;;;;5056529;28;20274;-78
2023/04/30 12:59:00;;;;;;;439.73;217.70;;;;;;;;;;5056431;28;20220;-79
2023/04/30 13:01:27;;;;;;;440.65;217.15;;;;;;;;;;5057631;28;20247;-79
2023/04/30 13:03:54;;;;;;;431.27;204.75;;;;;;;;;;5058197;28;20277;-78
2023/04/30 13:06:23;;;;;;;436.92;225.63;;;;;;;;;;5057473;28;20208;-78
2023/04/30 13:08:50;;;;;;;439.30;224.25;;;;;;;;;;5056793;28;20315;-78
2023/04/30 13:11:17;;;;;;;429.73;209.85;;;;;;;;;;5057276;28;20211;-78
2023/04/30 13:13:44;;;;;;;432.48;222.40;;;;;;;;;;5064456;28;20208;-79
2023/04/30 13:16:11;;;;;;;437.77;238.40;;;;;;;;;;5069912;28;20205;-78
2023/04/30 13:18:38;;;;;;;438.20;230.57;;;;;;;;;;5067219;28;20224;-78
2023/04/30 13:21:05;;;;;;;442.17;240.50;;;;;;;;;;5058385;28;20571;-79
2023/04/30 13:23:33;;;;;;;445.80;240.32;;;;;;;;;;5057197;28;20208;-79
2023/04/30 13:26:00;;;;;;;480.98;302.15;;;;;;;;;;5056597;28;20208;-78
2023/04/30 13:28:27;;;;;;;468.00;271.23;;;;;;;;;;5057284;28;20219;-78
2023/04/30 13:30:54;;;;;;;446.63;250.15;;;;;;;;;;5057195;28;20641;-78
2023/04/30 13:33:21;;;;;;;455.20;273.23;;;;;;;;;;5056534;28;20609;-78
2023/04/30 13:35:49;;;;;;;458.25;257.00;;;;;;;;;;5056235;28;20216;-77
2023/04/30 13:38:16;;;;;;;377.90;240.05;;;;;;;;;;5056608;28;20211;-78
2023/04/30 13:40:44;;;;;;;78.03;70.67;;;;;;;;;;5056886;28;20568;-77
2023/04/30 13:43:12;;;;;;;24.17;22.83;;;;;;;;;;5056743;28;20462;-78
2023/04/30 13:45:39;;;;;;;467.38;277.00;;;;;;;;;;5055946;28;20463;-78
2023/04/30 13:48:06;;;;;;;454.10;274.42;;;;;;;;;;5056419;28;20605;-78
2023/04/30 13:50:33;;;;;;;457.77;272.13;;;;;;;;;;5058733;28;20232;-80
2023/04/30 13:53:00;;;;;;;457.60;277.13;;;;;;;;;;5060351;28;20227;-79
2023/04/30 13:55:27;;;;;;;464.02;288.25;;;;;;;;;;5058043;28;20220;-80
2023/04/30 13:57:55;;;;;;;455.05;262.00;;;;;;;;;;5058413;28;20231;-79
2023/04/30 14:00:23;;;;;;;457.45;258.55;;;;;;;;;;5058224;28;20220;-78
2023/04/30 14:02:50;;;;;;;462.98;287.92;;;;;;;;;;5058464;28;20210;-80
2023/04/30 14:05:17;;;;;;;459.40;271.15;;;;;;;;;;5058393;28;20608;-79